Time;durP1;ratioP1;P1;durP2;ratioP2;P2;SDS_P1;SDS_P2;PMS_P1;PMS_P2;Temp;Humidity;BMP_temperature;BMP_pressure;BME280_temperature;BME280_humidity;BME280_pressure;Samples;Min_cycle;Max_cycle;Signal;HPM_P1;HPM_P2
2023/03/31 04:20:45;;;;;;;8.30;2.60;;;;;;;;;;5450538;23;20018;-67
2023/03/31 04:23:13;;;;;;;5.40;2.03;;;;;;;;;;4914239;29;20036;-62
2023/03/31 04:25:45;;;;;;;5.82;1.73;;;;;;;;;;4913869;29;20029;-62
2023/03/31 04:28:13;;;;;;;6.30;1.97;;;;;;;;;;4913902;29;20028;-62
2023/03/31 04:30:39;;;;;;;4.50;1.80;;;;;;;;;;4914458;29;20030;-68
2023/03/31 04:33:05;;;;;;;6.50;2.00;;;;;;;;;;4914361;29;20056;-68
2023/03/31 04:35:48;;;;;;;3.83;1.50;;;;;;;;;;4914361;29;20028;-66
2023/03/31 04:38:17;;;;;;;;;;;;;;;;;;4914463;29;20456;-66
2023/03/31 04:40:43;;;;;;;10.15;2.10;;;;;;;;;;4914382;29;20359;-63
2023/03/31 04:43:09;;;;;;;5.43;1.92;;;;;;;;;;4914092;29;20495;-63
2023/03/31 04:45:35;;;;;;;5.82;1.85;;;;;;;;;;4914427;29;20024;-63
2023/03/31 04:48:01;;;;;;;6.05;1.60;;;;;;;;;;4917697;29;20383;-69
2023/03/31 04:50:27;;;;;;;6.78;2.70;;;;;;;;;;4917284;29;20047;-63
2023/03/31 04:52:53;;;;;;;6.40;2.38;;;;;;;;;;4917584;29;20115;-70
2023/03/31 04:55:20;;;;;;;6.78;2.42;;;;;;;;;;4900295;29;20120;-66
2023/03/31 04:57:46;;;;;;;3.55;1.90;;;;;;;;;;4917477;29;20447;-62
2023/03/31 05:00:12;;;;;;;6.72;2.65;;;;;;;;;;4916784;29;20079;-63
2023/03/31 05:02:38;;;;;;;7.53;3.10;;;;;;;;;;4916487;29;20024;-62
2023/03/31 05:05:04;;;;;;;9.60;3.13;;;;;;;;;;4924492;29;20028;-62
2023/03/31 05:07:30;;;;;;;10.80;3.83;;;;;;;;;;4924926;29;20408;-63
2023/03/31 05:09:56;;;;;;;12.07;3.38;;;;;;;;;;4921655;29;20029;-65
2023/03/31 05:12:22;;;;;;;12.48;6.75;;;;;;;;;;4920314;29;20090;-67
2023/03/31 05:14:48;;;;;;;11.73;5.70;;;;;;;;;;4925366;29;20016;-62
2023/03/31 05:17:16;;;;;;;7.40;3.20;;;;;;;;;;4905998;29;20054;-69
2023/03/31 05:19:42;;;;;;;7.05;2.55;;;;;;;;;;4924422;29;20035;-62
2023/03/31 05:22:09;;;;;;;4.70;2.40;;;;;;;;;;4940133;29;20043;-62
2023/03/31 05:24:35;;;;;;;4.60;2.20;;;;;;;;;;4953790;29;20034;-62
2023/03/31 05:27:01;;;;;;;5.40;2.20;;;;;;;;;;4953656;29;20027;-62
2023/03/31 05:29:27;;;;;;;6.25;2.65;;;;;;;;;;4953627;28;20028;-67
2023/03/31 05:31:53;;;;;;;6.90;2.92;;;;;;;;;;4953702;29;20023;-64
2023/03/31 05:34:19;;;;;;;10.32;4.57;;;;;;;;;;4953808;29;20031;-63
2023/03/31 05:36:47;;;;;;;13.60;5.45;;;;;;;;;;4953581;28;20459;-64
2023/03/31 05:39:13;;;;;;;6.45;3.42;;;;;;;;;;4953092;29;20027;-62
2023/03/31 05:41:39;;;;;;;10.13;3.40;;;;;;;;;;4953352;29;20027;-68
2023/03/31 05:44:05;;;;;;;8.48;3.50;;;;;;;;;;4954605;28;20024;-64
2023/03/31 05:46:31;;;;;;;5.68;2.60;;;;;;;;;;4954577;28;20028;-66
2023/03/31 05:48:57;;;;;;;9.77;3.50;;;;;;;;;;4954739;28;20103;-59
2023/03/31 05:51:24;;;;;;;9.07;3.92;;;;;;;;;;4954355;28;20091;-66
2023/03/31 05:53:50;;;;;;;9.90;3.20;;;;;;;;;;4954199;28;20040;-67
2023/03/31 05:56:16;;;;;;;14.35;5.10;;;;;;;;;;4954586;28;20032;-64
2023/03/31 05:58:42;;;;;;;14.50;9.00;;;;;;;;;;4954414;28;20494;-62
2023/03/31 06:01:12;;;;;;;9.52;4.00;;;;;;;;;;4953059;29;20047;-68
2023/03/31 06:03:40;;;;;;;7.95;2.70;;;;;;;;;;4954638;28;20114;-58
2023/03/31 06:06:07;;;;;;;6.10;2.70;;;;;;;;;;4954279;28;20034;-61
2023/03/31 06:08:36;;;;;;;7.80;3.00;;;;;;;;;;4954076;28;20027;-68
2023/03/31 06:11:10;;;;;;;8.27;3.17;;;;;;;;;;4954538;28;20049;-67
2023/03/31 06:13:36;;;;;;;6.95;2.90;;;;;;;;;;4954182;28;20032;-59
2023/03/31 06:16:02;;;;;;;10.20;3.00;;;;;;;;;;4953188;29;20031;-60
2023/03/31 06:18:29;;;;;;;7.63;2.72;;;;;;;;;;4954139;28;20097;-60
2023/03/31 06:20:56;;;;;;;5.45;2.65;;;;;;;;;;4953813;28;20038;-68
2023/03/31 06:23:22;;;;;;;10.35;3.10;;;;;;;;;;4954186;28;20027;-68
2023/03/31 06:25:48;;;;;;;8.75;2.90;;;;;;;;;;4954071;28;20031;-67
2023/03/31 06:28:14;;;;;;;10.73;2.97;;;;;;;;;;4952708;29;20454;-68
2023/03/31 06:30:40;;;;;;;7.53;2.70;;;;;;;;;;4952505;29;20051;-64
2023/03/31 06:33:07;;;;;;;9.02;3.13;;;;;;;;;;4954187;28;20027;-59
2023/03/31 06:35:33;;;;;;;9.95;2.92;;;;;;;;;;4953931;28;20039;-68
2023/03/31 06:37:59;;;;;;;6.60;2.78;;;;;;;;;;4953742;28;20034;-68
2023/03/31 06:40:25;;;;;;;11.25;3.05;;;;;;;;;;4953487;28;20399;-68
2023/03/31 06:42:51;;;;;;;8.27;3.25;;;;;;;;;;4953510;28;20043;-59
2023/03/31 06:45:17;;;;;;;7.78;2.65;;;;;;;;;;4953594;29;20035;-67
2023/03/31 06:47:43;;;;;;;7.65;2.92;;;;;;;;;;4953552;29;20027;-60
2023/03/31 06:50:10;;;;;;;8.75;2.75;;;;;;;;;;4953422;29;20039;-67
2023/03/31 06:52:36;;;;;;;8.63;3.25;;;;;;;;;;4953149;29;20028;-64
2023/03/31 06:55:02;;;;;;;10.02;3.00;;;;;;;;;;4953283;29;20114;-67
2023/03/31 06:57:31;;;;;;;8.20;2.85;;;;;;;;;;4953509;29;20054;-68
2023/03/31 06:59:57;;;;;;;10.38;3.50;;;;;;;;;;4953242;29;20039;-63
2023/03/31 07:02:23;;;;;;;12.02;3.05;;;;;;;;;;4953290;29;20521;-67
2023/03/31 07:04:49;;;;;;;10.10;3.45;;;;;;;;;;4953319;29;20039;-62
2023/03/31 07:07:15;;;;;;;7.85;3.05;;;;;;;;;;4953360;29;20085;-68
2023/03/31 07:09:41;;;;;;;6.85;2.65;;;;;;;;;;4952778;28;20039;-68
2023/03/31 07:12:09;;;;;;;10.05;3.88;;;;;;;;;;4935946;29;20038;-62
2023/03/31 07:14:35;;;;;;;10.57;4.55;;;;;;;;;;4952915;29;20027;-62
2023/03/31 07:17:01;;;;;;;8.27;4.50;;;;;;;;;;4953132;29;20399;-67
2023/03/31 07:19:27;;;;;;;10.82;3.70;;;;;;;;;;4952764;29;20487;-66
2023/03/31 07:21:53;;;;;;;9.02;3.47;;;;;;;;;;4952591;29;20422;-62
2023/03/31 07:24:19;;;;;;;7.03;3.05;;;;;;;;;;4952080;29;20027;-69
2023/03/31 07:26:45;;;;;;;10.18;3.78;;;;;;;;;;4953266;29;20023;-60
2023/03/31 07:29:11;;;;;;;7.38;2.72;;;;;;;;;;4952980;29;20458;-66
2023/03/31 07:31:37;;;;;;;5.18;2.42;;;;;;;;;;4953010;29;20031;-58
2023/03/31 07:34:04;;;;;;;9.15;2.72;;;;;;;;;;4953114;29;20032;-63
2023/03/31 07:36:30;;;;;;;4.32;2.13;;;;;;;;;;4952898;29;20470;-60
2023/03/31 07:38:56;;;;;;;5.47;2.35;;;;;;;;;;4934908;29;20448;-58
2023/03/31 07:41:23;;;;;;;8.10;2.45;;;;;;;;;;4953021;29;20097;-59
2023/03/31 07:43:50;;;;;;;11.35;2.58;;;;;;;;;;4952649;29;20020;-59
2023/03/31 07:46:16;;;;;;;9.05;2.28;;;;;;;;;;4952885;29;20031;-68
2023/03/31 07:48:42;;;;;;;9.27;2.70;;;;;;;;;;4952580;29;20028;-59
2023/03/31 07:51:09;;;;;;;8.65;2.33;;;;;;;;;;4952378;29;20132;-60
2023/03/31 07:53:36;;;;;;;9.02;2.53;;;;;;;;;;4953015;29;20033;-68
2023/03/31 07:56:02;;;;;;;6.10;2.40;;;;;;;;;;4958750;29;20082;-66
2023/03/31 07:58:28;;;;;;;7.50;2.50;;;;;;;;;;4942535;29;20027;-67
2023/03/31 08:00:55;;;;;;;9.80;2.30;;;;;;;;;;4957348;29;20027;-66
2023/03/31 08:03:21;;;;;;;10.23;2.33;;;;;;;;;;4954538;29;20039;-70
2023/03/31 08:05:47;;;;;;;8.20;2.60;;;;;;;;;;4958358;29;20066;-66
2023/03/31 08:08:15;;;;;;;8.75;3.28;;;;;;;;;;4952828;29;20038;-66
2023/03/31 08:10:41;;;;;;;9.70;2.80;;;;;;;;;;4952849;29;20043;-65
2023/03/31 08:13:07;;;;;;;6.57;2.92;;;;;;;;;;4952618;29;20023;-66
2023/03/31 08:15:33;;;;;;;8.30;2.45;;;;;;;;;;4952731;29;20035;-69
2023/03/31 08:17:59;;;;;;;8.82;2.75;;;;;;;;;;4952623;29;20093;-63
2023/03/31 08:20:25;;;;;;;6.90;3.22;;;;;;;;;;4952298;28;20491;-59
2023/03/31 08:22:51;;;;;;;10.38;3.17;;;;;;;;;;4955541;29;20191;-58
2023/03/31 08:25:17;;;;;;;5.97;2.38;;;;;;;;;;4956195;29;20118;-59
2023/03/31 08:27:43;;;;;;;6.03;2.47;;;;;;;;;;4956096;29;20058;-59
2023/03/31 08:30:10;;;;;;;5.75;2.22;;;;;;;;;;4955962;29;20032;-57
2023/03/31 08:32:36;;;;;;;6.00;2.20;;;;;;;;;;4955710;29;20046;-62
2023/03/31 08:35:03;;;;;;;8.63;2.33;;;;;;;;;;4955799;29;20050;-63
2023/03/31 08:37:30;;;;;;;7.97;2.20;;;;;;;;;;4955929;29;20023;-60
2023/03/31 08:39:56;;;;;;;6.43;2.65;;;;;;;;;;4955835;29;20086;-59
2023/03/31 08:42:25;;;;;;;6.85;2.15;;;;;;;;;;4955684;29;20034;-61
2023/03/31 08:44:51;;;;;;;7.78;2.40;;;;;;;;;;4955964;29;20028;-58
2023/03/31 08:47:19;;;;;;;5.65;2.40;;;;;;;;;;4955794;29;20037;-59
2023/03/31 08:49:48;;;;;;;6.15;2.17;;;;;;;;;;4955711;29;20028;-68
2023/03/31 08:52:18;;;;;;;7.55;1.90;;;;;;;;;;4955725;29;20023;-58
2023/03/31 08:54:48;;;;;;;8.07;2.47;;;;;;;;;;4955561;29;20035;-66
2023/03/31 08:57:19;;;;;;;7.55;2.60;;;;;;;;;;4955776;29;20019;-69
2023/03/31 08:59:45;;;;;;;6.10;2.03;;;;;;;;;;4955561;29;20043;-65
2023/03/31 09:02:18;;;;;;;6.88;2.17;;;;;;;;;;4955165;29;20046;-59
2023/03/31 09:04:44;;;;;;;8.63;3.10;;;;;;;;;;4955675;29;20387;-67
2023/03/31 09:07:13;;;;;;;5.15;2.08;;;;;;;;;;4955428;29;20031;-68
2023/03/31 09:09:57;;;;;;;7.60;2.22;;;;;;;;;;4955519;29;20027;-65
2023/03/31 09:12:28;;;;;;;10.30;2.50;;;;;;;;;;4955478;29;20042;-63
2023/03/31 09:15:00;;;;;;;10.20;2.67;;;;;;;;;;4955269;29;20463;-67
2023/03/31 09:17:41;;;;;;;7.55;1.90;;;;;;;;;;4955259;29;20063;-68
2023/03/31 09:20:16;;;;;;;5.70;1.95;;;;;;;;;;4954834;29;20486;-63
2023/03/31 09:23:05;;;;;;;8.63;2.72;;;;;;;;;;4939484;29;20062;-69
2023/03/31 09:25:33;;;;;;;8.07;2.60;;;;;;;;;;4938763;29;20027;-65
2023/03/31 09:28:01;;;;;;;8.48;2.40;;;;;;;;;;4954825;29;20137;-70
2023/03/31 09:30:29;;;;;;;3.63;1.83;;;;;;;;;;4954527;29;20050;-60
2023/03/31 09:33:15;;;;;;;8.13;2.63;;;;;;;;;;4954414;28;20735;-67
2023/03/31 09:35:41;;;;;;;5.57;1.80;;;;;;;;;;4954044;29;20050;-60
2023/03/31 09:38:10;;;;;;;7.60;2.28;;;;;;;;;;4954608;29;20034;-63
2023/03/31 09:40:36;;;;;;;10.40;2.60;;;;;;;;;;4954643;29;20035;-59
2023/03/31 09:43:04;;;;;;;9.77;2.58;;;;;;;;;;4954442;29;20035;-66
2023/03/31 09:45:32;;;;;;;7.57;2.00;;;;;;;;;;4952707;29;20578;-65
2023/03/31 09:48:00;;;;;;;7.32;2.78;;;;;;;;;;4952784;29;20082;-68
2023/03/31 09:50:27;;;;;;;8.60;2.55;;;;;;;;;;4949552;29;20027;-70
2023/03/31 09:52:57;;;;;;;6.93;2.53;;;;;;;;;;4945823;29;20087;-66
2023/03/31 09:55:26;;;;;;;5.72;2.05;;;;;;;;;;4943055;29;20476;-59
2023/03/31 09:57:52;;;;;;;8.38;2.10;;;;;;;;;;4936834;29;20038;-63
2023/03/31 10:00:21;;;;;;;5.15;2.10;;;;;;;;;;4946940;29;20074;-68
2023/03/31 10:02:51;;;;;;;7.53;2.67;;;;;;;;;;4945167;29;20023;-67
2023/03/31 10:05:20;;;;;;;4.47;2.15;;;;;;;;;;4949608;29;20146;-60
2023/03/31 10:07:46;;;;;;;8.00;2.60;;;;;;;;;;4943506;29;20554;-66
2023/03/31 10:10:24;;;;;;;7.05;3.25;;;;;;;;;;4943240;29;20058;-67
2023/03/31 10:12:51;;;;;;;12.48;3.30;;;;;;;;;;4951762;29;20033;-68
2023/03/31 10:15:21;;;;;;;38.65;3.63;;;;;;;;;;4953467;29;20111;-66
2023/03/31 10:17:48;;;;;;;6.05;1.83;;;;;;;;;;4952325;29;20031;-66
2023/03/31 10:20:27;;;;;;;6.30;1.85;;;;;;;;;;4948449;29;20074;-66
2023/03/31 10:22:53;;;;;;;6.32;1.70;;;;;;;;;;4922854;29;20444;-61
2023/03/31 10:25:27;;;;;;;6.35;1.90;;;;;;;;;;4925736;29;20024;-66
2023/03/31 10:30:40;;;;;;;8.52;2.00;;;;;;;;;;4929828;29;20681;-62
2023/03/31 10:33:11;;;;;;;8.68;2.20;;;;;;;;;;4923985;29;20016;-60
2023/03/31 10:35:37;;;;;;;5.30;1.90;;;;;;;;;;4925841;29;20028;-60
2023/03/31 10:38:11;;;;;;;7.18;2.28;;;;;;;;;;4927695;29;20052;-65
2023/03/31 10:40:38;;;;;;;4.25;2.00;;;;;;;;;;4924363;29;20491;-68
2023/03/31 10:43:10;;;;;;;6.10;2.08;;;;;;;;;;4928005;29;20039;-64
2023/03/31 10:45:38;;;;;;;9.85;2.25;;;;;;;;;;4927100;29;20489;-63
2023/03/31 10:48:04;;;;;;;7.60;2.22;;;;;;;;;;4930485;29;20076;-65
2023/03/31 10:50:33;;;;;;;7.13;1.98;;;;;;;;;;4923267;29;20032;-65
2023/03/31 10:53:25;;;;;;;5.97;2.20;;;;;;;;;;4911659;29;20432;-65
2023/03/31 10:55:51;;;;;;;;;;;;;;;;;;4925513;29;20051;-64
2023/03/31 10:58:26;;;;;;;6.13;2.20;;;;;;;;;;4927800;29;19911;-66
2023/03/31 11:00:56;;;;;;;5.18;1.48;;;;;;;;;;4930173;29;20043;-65
2023/03/31 11:03:46;;;;;;;7.75;2.50;;;;;;;;;;4936076;29;20478;-63
2023/03/31 11:06:15;;;;;;;8.90;2.08;;;;;;;;;;4957871;28;20117;-62
2023/03/31 11:08:47;;;;;;;10.32;2.85;;;;;;;;;;4953131;28;20019;-61
2023/03/31 11:11:19;;;;;;;8.15;2.88;;;;;;;;;;4953209;28;20106;-68
2023/03/31 11:13:56;;;;;;;8.27;2.60;;;;;;;;;;4953045;28;20143;-59
2023/03/31 11:16:30;;;;;;;6.30;2.00;;;;;;;;;;4953652;28;20031;-65
2023/03/31 11:19:15;;;;;;;5.80;2.00;;;;;;;;;;4946073;28;20071;-61
2023/03/31 11:21:47;;;;;;;6.13;2.40;;;;;;;;;;4950953;29;20047;-65
2023/03/31 11:24:13;;;;;;;6.80;2.45;;;;;;;;;;4952586;29;20035;-61
2023/03/31 11:26:45;;;;;;;5.40;1.80;;;;;;;;;;4952710;29;20074;-66
2023/03/31 11:29:18;;;;;;;7.43;2.20;;;;;;;;;;4952379;29;20031;-63
2023/03/31 11:31:55;;;;;;;7.50;2.17;;;;;;;;;;4952076;29;20035;-60
2023/03/31 11:34:28;;;;;;;7.38;2.42;;;;;;;;;;4950357;29;20059;-65
2023/03/31 11:37:12;;;;;;;7.28;2.35;;;;;;;;;;4949260;29;20062;-61
2023/03/31 11:40:04;;;;;;;7.75;1.88;;;;;;;;;;4950329;29;20031;-65
2023/03/31 11:42:41;;;;;;;7.25;2.33;;;;;;;;;;4952485;29;20039;-62
2023/03/31 11:45:15;;;;;;;9.57;2.30;;;;;;;;;;4952397;29;20099;-62
2023/03/31 11:47:45;;;;;;;7.05;1.80;;;;;;;;;;4951541;29;20063;-61
2023/03/31 11:50:18;;;;;;;5.90;1.92;;;;;;;;;;4949154;29;20015;-63
2023/03/31 11:52:56;;;;;;;8.35;2.25;;;;;;;;;;4951879;29;20055;-67
2023/03/31 11:55:25;;;;;;;6.15;2.15;;;;;;;;;;4952090;28;20105;-65
2023/03/31 11:57:51;;;;;;;4.82;1.90;;;;;;;;;;4956596;29;20043;-67
2023/03/31 12:00:19;;;;;;;6.32;1.70;;;;;;;;;;4956539;29;20046;-63
2023/03/31 12:02:51;;;;;;;5.43;1.60;;;;;;;;;;4955917;29;20031;-61
2023/03/31 12:05:17;;;;;;;;;;;;;;;;;;4956585;29;20759;-62
2023/03/31 12:07:45;;;;;;;6.57;2.17;;;;;;;;;;4956142;29;19953;-63
2023/03/31 12:10:11;;;;;;;7.30;2.17;;;;;;;;;;4956471;29;20126;-62
2023/03/31 12:12:47;;;;;;;7.72;2.20;;;;;;;;;;4956301;29;20027;-62
2023/03/31 12:15:13;;;;;;;6.53;1.95;;;;;;;;;;4956244;29;20494;-62
2023/03/31 12:17:40;;;;;;;5.90;1.75;;;;;;;;;;4956052;29;20035;-63
2023/03/31 12:20:12;;;;;;;6.70;1.88;;;;;;;;;;4956080;29;20066;-68
2023/03/31 12:22:38;;;;;;;;;;;;;;;;;;4942360;29;20083;-63
2023/03/31 12:25:05;;;;;;;4.65;1.65;;;;;;;;;;4937030;29;19946;-63
2023/03/31 12:27:37;;;;;;;6.47;2.40;;;;;;;;;;4936527;29;20934;-66
2023/03/31 12:30:03;;;;;;;5.88;2.47;;;;;;;;;;4936930;29;20412;-69
2023/03/31 12:32:30;;;;;;;5.10;2.10;;;;;;;;;;4936591;29;20027;-67
2023/03/31 12:35:03;;;;;;;8.68;2.70;;;;;;;;;;4936501;29;20063;-72
2023/03/31 12:37:32;;;;;;;7.30;1.83;;;;;;;;;;4934834;29;20034;-64
2023/03/31 12:40:01;;;;;;;6.72;2.05;;;;;;;;;;4933913;29;20042;-63
2023/03/31 12:42:39;;;;;;;6.07;2.50;;;;;;;;;;4935101;29;20028;-64
2023/03/31 12:45:05;;;;;;;7.60;2.50;;;;;;;;;;4938451;29;20038;-71
2023/03/31 12:47:50;;;;;;;6.95;1.98;;;;;;;;;;4934729;29;20020;-60
2023/03/31 12:50:22;;;;;;;6.13;2.05;;;;;;;;;;4935116;29;20491;-60
2023/03/31 12:52:48;;;;;;;6.22;2.15;;;;;;;;;;4935795;29;20028;-70
2023/03/31 12:55:23;;;;;;;7.43;2.10;;;;;;;;;;4937021;29;20032;-69
2023/03/31 12:57:49;;;;;;;7.85;2.17;;;;;;;;;;4936017;29;20038;-67
2023/03/31 13:00:20;;;;;;;7.57;2.67;;;;;;;;;;4935297;29;20044;-65
2023/03/31 13:02:46;;;;;;;4.47;2.38;;;;;;;;;;4933756;29;20367;-61
2023/03/31 13:05:31;;;;;;;6.32;2.55;;;;;;;;;;4934207;29;20027;-64
2023/03/31 13:07:58;;;;;;;6.10;2.25;;;;;;;;;;4931310;29;20035;-70
2023/03/31 13:10:25;;;;;;;6.30;2.08;;;;;;;;;;4933801;29;20476;-59
2023/03/31 13:13:13;;;;;;;6.38;1.65;;;;;;;;;;4933228;29;20044;-61
2023/03/31 13:15:39;;;;;;;6.75;1.80;;;;;;;;;;4933593;29;20490;-72
2023/03/31 13:18:06;;;;;;;7.40;1.73;;;;;;;;;;4935124;29;20106;-66
2023/03/31 13:20:36;;;;;;;7.13;2.25;;;;;;;;;;4934097;29;20038;-65
2023/03/31 13:23:24;;;;;;;4.68;2.38;;;;;;;;;;4932028;29;20047;-61
2023/03/31 13:25:51;;;;;;;5.05;2.22;;;;;;;;;;4927860;29;20061;-61
2023/03/31 13:28:24;;;;;;;5.10;1.98;;;;;;;;;;4936335;29;20350;-60
2023/03/31 13:30:53;;;;;;;6.45;1.98;;;;;;;;;;4935329;29;20110;-69
2023/03/31 13:33:28;;;;;;;7.38;2.10;;;;;;;;;;4932608;29;20028;-64
2023/03/31 13:36:13;;;;;;;7.53;2.35;;;;;;;;;;4935859;29;20031;-61
2023/03/31 13:38:45;;;;;;;11.52;3.95;;;;;;;;;;4935490;29;20059;-65
2023/03/31 13:41:30;;;;;;;8.48;2.55;;;;;;;;;;4939636;29;20820;-64
2023/03/31 13:44:09;;;;;;;6.47;2.25;;;;;;;;;;4927088;29;20551;-69
2023/03/31 13:46:54;;;;;;;5.53;2.38;;;;;;;;;;4917920;29;20480;-64
2023/03/31 13:49:40;;;;;;;8.90;3.28;;;;;;;;;;4918558;29;20107;-64
2023/03/31 13:52:10;;;;;;;7.93;2.38;;;;;;;;;;4915534;29;20046;-62
2023/03/31 13:55:01;;;;;;;7.03;2.15;;;;;;;;;;4917569;29;20028;-62
2023/03/31 13:57:34;;;;;;;15.05;7.28;;;;;;;;;;4916025;29;20034;-64
2023/03/31 14:00:19;;;;;;;10.35;3.22;;;;;;;;;;4916194;29;20309;-62
2023/03/31 14:02:53;;;;;;;9.82;4.47;;;;;;;;;;4916026;29;20033;-63
2023/03/31 14:05:30;;;;;;;12.32;6.05;;;;;;;;;;4916310;29;20036;-66
2023/03/31 14:08:13;;;;;;;12.68;3.25;;;;;;;;;;4916078;29;20024;-70
2023/03/31 14:10:41;;;;;;;8.65;2.95;;;;;;;;;;4918465;29;20098;-69
2023/03/31 14:13:24;;;;;;;8.02;2.97;;;;;;;;;;4920409;29;20039;-63
2023/03/31 14:15:52;;;;;;;8.13;3.80;;;;;;;;;;4916169;29;20392;-72
2023/03/31 14:18:28;;;;;;;23.67;11.10;;;;;;;;;;4915289;29;20028;-66
2023/03/31 14:20:57;;;;;;;8.23;2.90;;;;;;;;;;4923450;29;20480;-71
2023/03/31 14:23:43;;;;;;;5.47;2.10;;;;;;;;;;4923773;29;20071;-66
2023/03/31 14:26:10;;;;;;;5.93;2.42;;;;;;;;;;4924446;29;20043;-61
2023/03/31 14:28:56;;;;;;;9.55;2.80;;;;;;;;;;4923349;29;20388;-62
2023/03/31 14:31:36;;;;;;;7.68;2.35;;;;;;;;;;4924032;29;20020;-67
2023/03/31 14:34:07;;;;;;;8.55;2.13;;;;;;;;;;4923051;29;20164;-69
2023/03/31 14:36:59;;;;;;;8.70;2.08;;;;;;;;;;4924744;29;20526;-63
2023/03/31 14:39:29;;;;;;;6.70;2.22;;;;;;;;;;4920454;29;20384;-65
2023/03/31 14:41:57;;;;;;;7.50;2.17;;;;;;;;;;4914823;29;20408;-61
2023/03/31 14:44:24;;;;;;;7.30;2.97;;;;;;;;;;4919465;29;20066;-71
2023/03/31 14:46:51;;;;;;;6.35;2.72;;;;;;;;;;4923308;29;20019;-63
2023/03/31 14:49:22;;;;;;;4.50;2.25;;;;;;;;;;4922039;29;21399;-69
2023/03/31 14:51:48;;;;;;;5.72;2.25;;;;;;;;;;4920033;29;20483;-77
2023/03/31 14:54:16;;;;;;;9.68;3.78;;;;;;;;;;4928615;29;20036;-81
2023/03/31 14:56:43;;;;;;;10.57;3.33;;;;;;;;;;4933850;29;20027;-74
2023/03/31 14:59:09;;;;;;;5.65;2.70;;;;;;;;;;4919928;29;20400;-75
2023/03/31 15:01:36;;;;;;;8.02;2.60;;;;;;;;;;4897056;29;20047;-62
2023/03/31 15:04:23;;;;;;;7.40;3.28;;;;;;;;;;4914049;29;20576;-63
2023/03/31 15:06:50;;;;;;;8.63;2.95;;;;;;;;;;4914594;29;20473;-64
2023/03/31 15:09:22;;;;;;;6.03;2.20;;;;;;;;;;4914658;29;20088;-66
2023/03/31 15:11:52;;;;;;;7.35;2.47;;;;;;;;;;4915074;29;20024;-67
2023/03/31 15:14:18;;;;;;;6.70;1.85;;;;;;;;;;4914918;29;20028;-65
2023/03/31 15:16:45;;;;;;;7.07;2.00;;;;;;;;;;4914533;29;20036;-63
2023/03/31 15:19:14;;;;;;;9.10;2.13;;;;;;;;;;4914710;29;20039;-66
2023/03/31 15:21:40;;;;;;;8.43;2.30;;;;;;;;;;4918419;29;20051;-68
2023/03/31 15:24:06;;;;;;;6.80;2.22;;;;;;;;;;4933556;29;20055;-68
2023/03/31 15:26:37;;;;;;;7.97;2.60;;;;;;;;;;4933568;29;20035;-72
2023/03/31 15:29:08;;;;;;;4.95;2.20;;;;;;;;;;4933580;29;20024;-77
2023/03/31 15:31:34;;;;;;;4.38;1.90;;;;;;;;;;4933173;29;20040;-64
2023/03/31 15:34:11;;;;;;;15.95;8.30;;;;;;;;;;4933503;29;20028;-71
2023/03/31 15:36:37;;;;;;;6.32;3.00;;;;;;;;;;4933537;29;20027;-65
2023/03/31 15:39:05;;;;;;;6.70;2.55;;;;;;;;;;4933268;29;20578;-69
2023/03/31 15:41:33;;;;;;;11.85;3.60;;;;;;;;;;4933334;29;20051;-73
2023/03/31 15:44:06;;;;;;;6.55;2.83;;;;;;;;;;4933439;29;20102;-61
2023/03/31 15:46:38;;;;;;;11.15;2.65;;;;;;;;;;4933504;29;20040;-71
2023/03/31 15:49:05;;;;;;;14.73;2.90;;;;;;;;;;4933508;29;20063;-73
2023/03/31 15:51:42;;;;;;;7.13;2.25;;;;;;;;;;4929526;29;20032;-60
2023/03/31 15:54:38;;;;;;;7.63;2.60;;;;;;;;;;4936833;29;20039;-64
2023/03/31 15:57:05;;;;;;;10.80;4.30;;;;;;;;;;4939779;29;20054;-66
2023/03/31 15:59:42;;;;;;;11.30;4.97;;;;;;;;;;4952697;29;20174;-65
2023/03/31 16:02:11;;;;;;;9.40;3.22;;;;;;;;;;4952431;29;20023;-72
2023/03/31 16:04:37;;;;;;;5.70;2.15;;;;;;;;;;4952149;29;20042;-72
2023/03/31 16:07:09;;;;;;;8.45;2.75;;;;;;;;;;4952059;29;20023;-63
2023/03/31 16:09:35;;;;;;;5.80;2.80;;;;;;;;;;4952311;29;20027;-68
2023/03/31 16:12:01;;;;;;;7.72;2.72;;;;;;;;;;4952589;29;20062;-65
2023/03/31 16:14:28;;;;;;;7.07;2.85;;;;;;;;;;4951962;29;20471;-59
2023/03/31 16:16:59;;;;;;;33.80;16.35;;;;;;;;;;4952856;29;20394;-68
2023/03/31 16:19:26;;;;;;;23.83;11.20;;;;;;;;;;4951164;29;20027;-66
2023/03/31 16:21:55;;;;;;;9.68;3.95;;;;;;;;;;4943587;29;20054;-60
2023/03/31 16:24:22;;;;;;;6.90;4.13;;;;;;;;;;4932959;29;20543;-59
2023/03/31 16:26:48;;;;;;;6.45;2.85;;;;;;;;;;4932945;29;20031;-60
2023/03/31 16:29:19;;;;;;;5.88;2.58;;;;;;;;;;4932854;29;20035;-63
2023/03/31 16:31:45;;;;;;;8.30;3.03;;;;;;;;;;4932549;29;20538;-68
2023/03/31 16:34:11;;;;;;;7.38;3.25;;;;;;;;;;4932269;29;20527;-65
2023/03/31 16:36:38;;;;;;;9.82;4.05;;;;;;;;;;4932374;29;20392;-61
2023/03/31 16:39:05;;;;;;;9.48;3.03;;;;;;;;;;4932843;29;20031;-69
2023/03/31 16:41:35;;;;;;;8.02;3.55;;;;;;;;;;4932908;29;20028;-61
2023/03/31 16:44:01;;;;;;;8.10;4.00;;;;;;;;;;4936598;29;20046;-60
2023/03/31 16:46:28;;;;;;;12.05;4.72;;;;;;;;;;4936552;29;20031;-62
2023/03/31 16:48:54;;;;;;;8.18;4.95;;;;;;;;;;4936208;29;20032;-60
2023/03/31 16:51:20;;;;;;;15.65;6.22;;;;;;;;;;4936080;29;20020;-68
2023/03/31 16:53:47;;;;;;;13.52;6.78;;;;;;;;;;4934147;29;20414;-63
2023/03/31 16:56:13;;;;;;;16.80;6.78;;;;;;;;;;4936356;29;20395;-70
2023/03/31 16:58:40;;;;;;;21.75;6.63;;;;;;;;;;4936266;29;20482;-70
2023/03/31 17:01:07;;;;;;;15.23;6.95;;;;;;;;;;4935496;29;20031;-66
2023/03/31 17:03:33;;;;;;;16.38;8.85;;;;;;;;;;4935769;29;20040;-60
2023/03/31 17:06:04;;;;;;;18.30;7.60;;;;;;;;;;4934608;29;20040;-61
2023/03/31 17:08:31;;;;;;;18.02;8.23;;;;;;;;;;4934478;29;20103;-66
2023/03/31 17:11:06;;;;;;;15.18;7.72;;;;;;;;;;4936362;29;20034;-65
2023/03/31 17:13:33;;;;;;;19.67;7.97;;;;;;;;;;4938046;29;20066;-69
2023/03/31 17:16:00;;;;;;;16.33;8.90;;;;;;;;;;4955589;29;20114;-66
2023/03/31 17:18:26;;;;;;;16.13;7.20;;;;;;;;;;4935880;29;20035;-65
2023/03/31 17:20:52;;;;;;;16.88;6.75;;;;;;;;;;4934811;29;20043;-68
2023/03/31 17:23:20;;;;;;;13.52;6.90;;;;;;;;;;4935174;29;20055;-67
2023/03/31 17:25:50;;;;;;;17.55;6.80;;;;;;;;;;4934942;29;20042;-69
2023/03/31 17:28:17;;;;;;;22.38;8.85;;;;;;;;;;4935421;29;20028;-71
2023/03/31 17:30:46;;;;;;;17.70;8.98;;;;;;;;;;4935564;29;20038;-70
2023/03/31 17:33:12;;;;;;;17.02;9.95;;;;;;;;;;4934984;29;20035;-65
2023/03/31 17:35:38;;;;;;;25.42;13.05;;;;;;;;;;4934602;29;20031;-69
2023/03/31 17:38:04;;;;;;;28.30;14.77;;;;;;;;;;4942019;29;20114;-65
2023/03/31 17:40:33;;;;;;;32.70;15.68;;;;;;;;;;4950864;29;20063;-69
2023/03/31 17:43:00;;;;;;;29.38;14.77;;;;;;;;;;4952884;29;20035;-64
2023/03/31 17:45:26;;;;;;;32.97;16.10;;;;;;;;;;4952470;29;20038;-69
2023/03/31 17:47:53;;;;;;;31.77;16.92;;;;;;;;;;4954090;29;20031;-59
2023/03/31 17:50:19;;;;;;;36.20;18.05;;;;;;;;;;4954034;29;20028;-63
2023/03/31 17:52:46;;;;;;;36.22;18.30;;;;;;;;;;4953723;28;20534;-62
2023/03/31 17:55:13;;;;;;;36.58;19.02;;;;;;;;;;4954577;29;20070;-58
2023/03/31 17:57:39;;;;;;;44.83;18.38;;;;;;;;;;4954204;29;20038;-68
2023/03/31 18:00:08;;;;;;;36.67;17.90;;;;;;;;;;4954345;29;20039;-61
2023/03/31 18:02:37;;;;;;;31.65;16.42;;;;;;;;;;4953888;29;20050;-61
2023/03/31 18:05:05;;;;;;;36.15;15.98;;;;;;;;;;4954156;29;20079;-66
2023/03/31 18:07:31;;;;;;;34.08;15.40;;;;;;;;;;4954386;29;20031;-62
2023/03/31 18:09:57;;;;;;;20.58;10.27;;;;;;;;;;4953100;29;20031;-59
2023/03/31 18:12:24;;;;;;;18.10;9.80;;;;;;;;;;4954220;29;20384;-64
2023/03/31 18:14:50;;;;;;;22.63;10.40;;;;;;;;;;4956868;29;20034;-64
2023/03/31 18:17:17;;;;;;;19.95;10.60;;;;;;;;;;4953362;29;20554;-63
2023/03/31 18:19:43;;;;;;;18.02;9.82;;;;;;;;;;4952681;29;20039;-62
2023/03/31 18:22:10;;;;;;;18.50;8.10;;;;;;;;;;4953324;29;20098;-65
2023/03/31 18:24:37;;;;;;;18.58;8.23;;;;;;;;;;4953835;29;20533;-58
2023/03/31 18:27:03;;;;;;;16.83;8.35;;;;;;;;;;4955174;29;20034;-58
2023/03/31 18:29:29;;;;;;;16.45;8.00;;;;;;;;;;4953466;29;20078;-65
2023/03/31 18:31:55;;;;;;;14.90;7.65;;;;;;;;;;4953636;29;20026;-66
2023/03/31 18:34:21;;;;;;;13.88;8.07;;;;;;;;;;4953674;29;20127;-59
2023/03/31 18:36:48;;;;;;;18.83;8.52;;;;;;;;;;4953443;29;20481;-65
2023/03/31 18:39:14;;;;;;;18.45;7.95;;;;;;;;;;4953683;29;20086;-70
2023/03/31 18:41:42;;;;;;;17.67;7.82;;;;;;;;;;4953263;29;20023;-60
2023/03/31 18:44:08;;;;;;;15.75;7.25;;;;;;;;;;4953419;28;20023;-64
2023/03/31 18:46:36;;;;;;;11.98;6.90;;;;;;;;;;4952334;28;20110;-58
2023/03/31 18:49:04;;;;;;;13.95;6.43;;;;;;;;;;4953004;29;20087;-58
2023/03/31 18:51:30;;;;;;;16.13;8.07;;;;;;;;;;4953064;29;20020;-67
2023/03/31 18:53:56;;;;;;;14.85;6.53;;;;;;;;;;4952716;29;20042;-60
2023/03/31 18:56:22;;;;;;;15.23;6.15;;;;;;;;;;4952361;29;20078;-60
2023/03/31 18:58:48;;;;;;;15.57;8.75;;;;;;;;;;4952540;29;20031;-60
2023/03/31 19:01:14;;;;;;;18.13;6.90;;;;;;;;;;4950649;29;20547;-59
2023/03/31 19:03:42;;;;;;;17.15;7.60;;;;;;;;;;4949884;29;20574;-58
2023/03/31 19:06:09;;;;;;;15.13;6.90;;;;;;;;;;4950339;28;20030;-69
2023/03/31 19:08:35;;;;;;;14.25;6.97;;;;;;;;;;4950920;29;20027;-64
2023/03/31 19:11:04;;;;;;;16.83;7.70;;;;;;;;;;4950738;29;20025;-59
2023/03/31 19:13:31;;;;;;;14.38;6.50;;;;;;;;;;4950998;29;20027;-62
2023/03/31 19:15:57;;;;;;;17.67;7.05;;;;;;;;;;4951382;29;20118;-69